x

Tillamook, Or - 85 Nm Wnw Of Tillamook, Or (46089) Wave Buoy

11:50pm - Mon 25th Jul 2016 All times are PDT. -7 hours from GMT.

  • Sig Wave height 6.6ft
  • Swell Direction
  • Peak Period 6s
  • Average Period 6s
  • Wind
    20mph, 22mph gusts
  • Sea Temp 63°f
  • Air Temp 61°f
  • Sea Pressure 1022.1mb
  • Tillamook, Or - 85 Nm Wnw Of Tillamook, Or
  • Tillamook, Or - 85 Nm Wnw Of Tillamook, Or

More Historic Weather Station data

Upgrade to MSW Pro to gain access to the past 30 days of data for over 8000 Wavebouys and Weather Stations around the globe.

Join Pro

Comparision Forecast

View Surf forecast
   
Mon 07/25 11:50pm 6.5ft 6s 6s 20 22 mph 1022.1mb 63f 61f
10:50pm 6ft 10s 6s 18 22 mph 1022.2mb 63f 61f
9:50pm 6.5ft 10s 6s 18 22 mph 1021.9mb 63f 61f
8:50pm 6ft 10s 6s 20 25 mph 1021.7mb 63f 61f
7:50pm 6ft 10s 6s 18 22 mph 1021.4mb 63f 62f
6:50pm 5.5ft 6s 6s 18 25 mph 1021.3mb 63f 61f
5:50pm 5.5ft 10s 6s 20 22 mph 1021.1mb 64f 61f
4:50pm 5ft 11s 6s 16 20 mph 1021.3mb 64f 61f
3:50pm 5ft 11s 6s 16 20 mph 1021.4mb 64f 61f
2:50pm 5.5ft 10s 6s 16 18 mph 1021.5mb 64f 62f
1:50pm 5ft 9s 6s 16 18 mph 1021.4mb 64f 62f
12:50pm 5ft 6s 5s 16 18 mph 1021.4mb 64f 61f
10:50am 4.5ft 8s 5s 16 18 mph 1021.2mb 63f 61f
9:50am 4.5ft 8s 5s 16 20 mph 1020.9mb 63f 61f
8:50am 4.5ft 6s 5s 16 18 mph 1020.7mb 63f 61f
7:50am 5ft 7s 5s 16 18 mph 1020.4mb 63f 61f
6:50am 4.5ft 15s 5s 16 18 mph 1020mb 63f 61f
5:50am 4.5ft 8s 5s 16 20 mph 1019.8mb 63f 61f
4:50am 4.5ft 5s 5s 18 22 mph 1019.5mb 63f 61f
3:50am 4.5ft 6s 5s 16 18 mph 1019.5mb 63f 61f
2:50am 4.5ft 5s 5s 16 20 mph 1019.5mb 63f 60f
1:50am 4.5ft 15s 5s 16 18 mph 1019.4mb 63f 61f
12:50am 4.5ft 5s 5s 18 22 mph 1019.4mb 63f 61f
Sun 07/24 11:50pm 4.5ft 8s 5s 18 22 mph 1019.5mb 63f 61f
10:50pm 4.5ft 5s 5s 18 20 mph 1019.4mb 63f 61f
9:50pm 4.5ft 7s 5s 18 22 mph 1019.2mb 63f 61f
8:50pm 4.5ft 4s 5s 18 22 mph 1018.9mb 63f 62f
7:50pm 4.5ft 8s 5s 20 25 mph 1019.1mb 64f 62f
6:50pm 4ft 7s 5s 20 25 mph 1018.9mb 64f 62f
5:50pm 4ft 7s 5s 20 22 mph 1019.3mb 64f 62f
4:50pm 4ft 8s 5s 18 22 mph 1019.5mb 64f 62f
3:50pm 3.5ft 8s 5s 20 22 mph 1019.9mb 64f 62f
2:50pm 3.5ft 16s 5s 18 20 mph 1020.4mb 63f 62f
1:50pm 3.5ft 7s 5s 16 18 mph 1020.9mb 63f 62f
12:50pm 3.5ft 8s 5s 16 18 mph 1021.1mb 63f 62f
11:50am 3.5ft 8s 5s 13 16 mph 1021.5mb 63f 62f
10:50am 3.5ft 15s 5s 16 18 mph 1021.3mb 63f 62f
9:50am 3.5ft 16s 5s 16 18 mph 1021.5mb 63f 62f
8:50am 3.5ft 7s 5s 13 16 mph 1021.5mb 63f 62f
7:50am 3.5ft 14s 5s 13 16 mph 1021.3mb 63f 62f
6:50am 3.5ft 8s 5s 13 16 mph 1021.2mb 63f 62f
5:50am 3ft 14s 5s 13 18 mph 1021.3mb 63f 62f
4:50am 3.5ft 8s 5s 13 16 mph 1021.5mb 63f 61f
3:50am 3.5ft 15s 5s 16 18 mph 1021.7mb 63f 62f
2:50am 3ft 7s 5s 13 18 mph 1022.1mb 63f 62f
1:50am 3ft 8s 5s 13 18 mph 1022.5mb 63f 62f
12:50am 3.5ft 16s 5s 16 18 mph 1022.9mb 63f 62f
Sat 07/23 11:50pm 3.5ft 8s 5s 13 16 mph 1023.4mb 64f 62f
10:50pm 3.5ft 15s 5s 13 16 mph 1024mb 63f 62f
9:50pm 3.5ft 15s 5s 13 16 mph 1024.3mb 64f 62f
8:50pm 3.5ft 8s 5s 16 18 mph 1024.3mb 64f 62f
7:50pm 3.5ft 8s 5s 16 18 mph 1024.5mb 64f 62f
6:50pm 3ft 16s 5s 16 18 mph 1024.6mb 64f 62f
5:50pm 3ft 15s 5s 13 16 mph 1025.3mb 64f 62f
4:50pm 3ft 8s 5s 13 16 mph 1025.6mb 64f 62f
3:50pm 3ft 15s 5s 13 16 mph 1025.9mb 64f 62f
2:50pm 3ft 8s 6s 11 13 mph 1026.1mb 63f 62f
1:50pm 3.5ft 8s 6s 9 11 mph 1026.4mb 63f 61f
12:50pm 3ft 15s 5s 13
mph
1026.5mb 63f 60f
11:50am 3.5ft 15s 6s 11 13 mph 1026.5mb 63f 62f
10:50am 3.5ft 15s 6s 9 11 mph 1026.7mb 63f 62f
9:50am 3.5ft 15s 6s 9 11 mph 1026.4mb 63f 62f
8:50am 3.5ft 8s 6s 11 13 mph 1026.2mb 63f 62f
7:50am 3.5ft 8s 6s 11 13 mph 1026.1mb 63f 62f
6:50am 3.5ft 8s 5s 11 13 mph 1026mb 63f 61f
5:50am 3.5ft 15s 6s 13 18 mph 1025.6mb 63f 61f
4:50am 3.5ft 8s 6s 13 16 mph 1025.5mb 63f 61f
3:50am 3.5ft 8s 6s 13 16 mph 1025.6mb 63f 61f
2:50am 3.5ft 8s 6s 11 16 mph 1025.7mb 63f 61f
1:50am 3.5ft 8s 6s 13
mph
1026.1mb 63f 61f
12:50am 3.5ft 15s 6s 11 13 mph 1026.6mb 63f 61f
Fri 07/22 11:50pm 3.5ft 8s 6s 11
mph
1026.9mb 63f 61f
10:50pm 3.5ft 14s 6s 9 11 mph 1027.1mb 63f 61f
9:50pm 3.5ft 9s 6s 9 11 mph 1027mb 63f 61f
8:50pm 3.5ft 8s 6s 11 13 mph 1026.9mb 63f 61f
7:50pm 3.5ft 15s 6s 13 16 mph 1026.9mb 63f 61f
6:50pm 3.5ft 15s 6s 9 13 mph 1026.8mb 63f 61f
5:50pm 3.5ft 16s 7s 11 13 mph 1026.9mb 63f 62f
4:50pm 3.5ft 8s 6s 9 13 mph 1027mb 63f 61f
3:50pm 3.5ft 8s 6s 9 11 mph 1027mb 63f 62f
2:50pm 3.5ft 8s 6s 9 11 mph 1027.2mb 63f 61f
1:50pm 4ft 8s 6s 7 9 mph 1026.9mb 64f 61f
12:50pm 4ft 8s 6s 9 11 mph 1026.6mb 63f 60f
10:50am 4ft 8s 6s 4 7 mph 1026.1mb 63f 60f
9:50am 3.5ft 15s 6s 2 4 mph 1026mb 62f 58f
8:50am 3.5ft 8s 6s 11 13 mph 1025.4mb 62f 59f
7:50am 3.5ft 15s 6s 4
mph
1025.1mb 62f 59f